Terminal Aerodrome Forecast
Issued by NWS Tampa Bay Area, FL

Home | Current Version | Previous Version | Text Only | Print | Product List | Glossary On
Versions: 1 2 3 4 5 6 7 8 9 10 11 12 13 14
000
FTUS42 KTBW 300500
TAFFMY
TAF
KFMY 300537Z 3006/3106 10005KT P6SM FEW025 SCT250
     FM301500 11008KT P6SM SCT030 SCT250
     FM301900 12008KT P6SM VCTS SCT040CB BKN100 BKN250
     FM310200 VRB03KT P6SM FEW025 BKN250=

USA.gov is the U.S. government's official web portal to all federal, state and local government web resources and services.